Aérodrome :
LOGIN :

S'inscrire | Disclaimer

   EN    FR    IT 

 










Légende :    VFR   VFR Marginal   IFR   IFR Intensif   IFR Très Intensif
Visi : 
Plafond : 
>= 8 km
>= 3000ft
5 à 8 km
1000 à 3000 ft
1500m à 5 km
500 à 1000 ft
800 à 1500m
200 à 500 ft
< 800m
< 200 ft
Symboles :   Orages  Brouillard  Fortes neiges  Fortes précipitations  Vent > 20 kt
SIGMETs :   Divers  Orages  Givrage  Turbulence  Onde Orograph.  Cendres Volcan.






- Altitude de l'aérodrome : 459 ft
- Code IATA : CER


LFRC - Cherbourg / Maupertus

DERNIER METAR :
  • 141330Z AUTO 18007KT 9999 FEW009 06/04 Q0994 TEMPO 4000 SHRAGS BKN020CB

METARs EXPIRÉS :
  • 141300Z AUTO 18008KT 9999 FEW007 BKN066 06/04 Q0994 TEMPO 4000 SHRAGS BKN020CB
  • 141230Z AUTO 19007KT CAVOK 05/04 Q0994 TEMPO 4000 SHRAGS BKN020CB
  • 141200Z AUTO 19009KT 9999 FEW046 SCT054 OVC082 05/03 Q0994 TEMPO 4000 SHRAGS BKN020CB
  • 141130Z AUTO 20012KT 9999 -RA FEW040 OVC056 05/03 Q0994 TEMPO 4000 SHRAGS BKN020CB
  • 141100Z AUTO 20016KT 9999 -RA FEW040 BKN049 OVC056 05/03 Q0994 TEMPO 4000 SHRAGS BKN020CB BECMG 18005KT

TAF TAF LFRC
Valide du 14 à 12h jusqu'au 14 à 21h UTC


141100Z 1412/1421 18010KT 9999 BKN030
TEMPO 1412/1421 4000 SHRAGS BKN020CB
BECMG 1418/1421 30007KT



MET'MAP, la Météo Aéronautique d'un coup d'oeil ! - Copyright ORBIFLY Décembre 2007 - Disclaimer

ORBIFLY MET'MAP TEAM :

Programmation & Développement : Alexandra Zaïnal
Conception & Développement : Baudouin d'Aumeries
Co-Programmation & Développement : Marc-Olivier Méhu
Soutien technique & logistique : Manuel Goepfert

Contact : metmap@orbifly.com




SOURCES & CREDITS :

   NOAA